Time;durP1;ratioP1;P1;durP2;ratioP2;P2;SDS_P1;SDS_P2;PMS_P1;PMS_P2;Temp;Humidity;BMP_temperature;BMP_pressure;BME280_temperature;BME280_humidity;BME280_pressure;Samples;Min_cycle;Max_cycle;Signal;HPM_P1;HPM_P2
2022/08/23 00:01:22;;;;;;;1.45;0.50;;;18.00;99.90;;;;;;5077701;28;20086;-78
2022/08/23 00:03:49;;;;;;;2.13;0.60;;;17.90;99.90;;;;;;5086492;28;20094;-79
2022/08/23 00:06:16;;;;;;;1.52;0.65;;;17.90;99.90;;;;;;5083679;28;20024;-79
2022/08/23 00:08:44;;;;;;;2.38;0.60;;;17.90;99.90;;;;;;5084948;28;20475;-79
2022/08/23 00:11:45;;;;;;;4.68;0.70;;;17.80;99.90;;;;;;5083122;28;20020;-79
2022/08/23 00:14:26;;;;;;;1.95;0.63;;;17.70;99.90;;;;;;5081460;28;20583;-79
2022/08/23 00:16:52;;;;;;;3.42;1.30;;;17.60;99.90;;;;;;5061860;28;20021;-79
2022/08/23 00:19:19;;;;;;;2.45;0.70;;;17.60;99.90;;;;;;5083246;28;20033;-79
2022/08/23 00:21:45;;;;;;;2.45;1.05;;;17.50;99.90;;;;;;5086864;28;20446;-79
2022/08/23 00:24:12;;;;;;;2.35;0.70;;;17.50;99.90;;;;;;5084019;28;20025;-79
2022/08/23 00:26:48;;;;;;;4.10;0.90;;;17.50;99.90;;;;;;5086168;28;20032;-79
2022/08/23 00:29:14;;;;;;;3.35;0.80;;;17.40;99.90;;;;;;5085609;28;20020;-78
2022/08/23 00:31:40;;;;;;;3.05;0.73;;;17.40;99.90;;;;;;5078379;28;20403;-79
2022/08/23 00:34:06;;;;;;;2.17;0.70;;;17.30;99.90;;;;;;5083839;28;20134;-79
2022/08/23 00:36:32;;;;;;;2.05;0.70;;;17.20;99.90;;;;;;5067670;28;20050;-79
2022/08/23 00:38:57;;;;;;;2.88;1.25;;;17.10;99.90;;;;;;5082222;28;20059;-79
2022/08/23 00:41:24;;;;;;;2.28;0.85;;;17.00;99.90;;;;;;5080273;28;20058;-79
2022/08/23 00:49:35;;;;;;;2.60;1.20;;;17.00;99.90;;;;;;5081911;28;20029;-79
2022/08/23 00:52:11;;;;;;;2.97;0.90;;;16.90;99.90;;;;;;5063276;28;20032;-80
2022/08/23 00:54:40;;;;;;;1.85;0.80;;;16.80;99.90;;;;;;5063789;28;20506;-79
2022/08/23 00:57:18;;;;;;;1.95;0.80;;;16.90;99.90;;;;;;5083109;28;20048;-79
2022/08/23 00:59:44;;;;;;;4.07;1.13;;;16.90;99.90;;;;;;5082315;28;20480;-79
2022/08/23 01:02:10;;;;;;;1.85;0.88;;;16.90;99.90;;;;;;5083784;28;20051;-78
2022/08/23 01:04:43;;;;;;;2.97;0.98;;;16.90;99.90;;;;;;5082894;28;20079;-78
2022/08/23 01:07:41;;;;;;;3.28;1.00;;;16.90;99.90;;;;;;5083932;28;20058;-78
2022/08/23 01:10:21;;;;;;;2.35;0.85;;;16.80;99.90;;;;;;5063866;28;20472;-79
2022/08/23 01:12:53;;;;;;;2.15;0.80;;;16.80;99.90;;;;;;5083734;28;20032;-79
2022/08/23 01:15:25;;;;;;;2.92;1.15;;;16.70;99.90;;;;;;5080682;28;20465;-78
2022/08/23 01:18:07;;;;;;;1.70;0.98;;;16.80;99.90;;;;;;5063186;28;20028;-79
2022/08/23 01:20:52;;;;;;;3.22;1.15;;;16.70;99.90;;;;;;5080973;28;20032;-78
2022/08/23 01:23:27;;;;;;;2.80;1.10;;;16.70;99.90;;;;;;5087233;28;20115;-79
2022/08/23 01:25:52;;;;;;;2.72;0.85;;;16.70;99.90;;;;;;5085214;28;20056;-79
2022/08/23 01:28:18;;;;;;;3.40;1.08;;;16.60;99.90;;;;;;5097333;28;20052;-79
2022/08/23 01:30:46;;;;;;;3.35;1.10;;;16.50;99.90;;;;;;5084129;28;20032;-79
2022/08/23 01:33:12;;;;;;;2.90;1.65;;;16.50;99.90;;;;;;5102019;28;20031;-79
2022/08/23 01:35:46;;;;;;;2.65;1.58;;;16.60;99.90;;;;;;5084052;28;20028;-78
2022/08/23 01:38:12;;;;;;;4.68;1.67;;;16.50;99.90;;;;;;5083785;28;20020;-79
2022/08/23 01:40:40;;;;;;;3.08;1.98;;;16.50;99.90;;;;;;5073571;28;20411;-79
2022/08/23 01:43:07;;;;;;;4.07;1.33;;;16.40;99.90;;;;;;5068355;28;20431;-79
2022/08/23 01:45:33;;;;;;;3.55;2.00;;;16.40;99.90;;;;;;5068212;28;20028;-78
2022/08/23 01:47:59;;;;;;;3.35;1.25;;;16.40;99.90;;;;;;5088277;28;20452;-79
2022/08/23 01:50:26;;;;;;;3.97;1.65;;;16.40;99.90;;;;;;5089034;28;20487;-79
2022/08/23 01:52:53;;;;;;;2.63;1.80;;;16.30;99.90;;;;;;5096560;28;20017;-79
2022/08/23 01:55:21;;;;;;;2.65;1.80;;;16.30;99.90;;;;;;5067680;28;20114;-79
2022/08/23 01:57:51;;;;;;;2.83;1.95;;;16.30;99.90;;;;;;5066939;28;20028;-78
2022/08/23 02:00:19;;;;;;;3.08;1.92;;;16.20;99.90;;;;;;5086482;28;20127;-79
2022/08/23 02:02:45;;;;;;;3.72;2.53;;;16.20;99.90;;;;;;5088675;28;20039;-79
2022/08/23 02:05:11;;;;;;;2.65;2.10;;;16.30;99.90;;;;;;5085599;28;20046;-79
2022/08/23 02:07:37;;;;;;;3.50;2.28;;;16.10;99.90;;;;;;5078443;28;20111;-78
2022/08/23 02:10:06;;;;;;;3.00;2.17;;;16.10;99.90;;;;;;5088417;28;20024;-79
2022/08/23 02:12:32;;;;;;;5.20;3.00;;;16.00;99.90;;;;;;5071914;28;20480;-79
2022/08/23 02:15:08;;;;;;;3.70;2.60;;;16.10;99.90;;;;;;5082605;28;20040;-78
2022/08/23 02:17:35;;;;;;;4.05;2.53;;;16.00;99.90;;;;;;5072209;28;20079;-79
2022/08/23 02:20:04;;;;;;;3.20;2.22;;;16.00;99.90;;;;;;5096647;28;20436;-79
2022/08/23 02:22:30;;;;;;;2.95;2.75;;;16.00;99.90;;;;;;5085178;28;20472;-79
2022/08/23 02:24:56;;;;;;;4.35;2.45;;;16.00;99.90;;;;;;5084275;28;20033;-79
2022/08/23 02:27:21;;;;;;;3.88;2.92;;;16.00;99.90;;;;;;5086942;28;20086;-79
2022/08/23 02:29:49;;;;;;;5.57;2.95;;;15.90;99.90;;;;;;5087921;28;20395;-78
2022/08/23 02:32:17;;;;;;;3.33;3.03;;;15.90;99.90;;;;;;5066069;28;20044;-79
2022/08/23 02:34:43;;;;;;;3.03;2.63;;;15.90;99.90;;;;;;5088952;28;20066;-79
2022/08/23 02:37:11;;;;;;;2.75;2.30;;;15.90;99.90;;;;;;5099620;28;20028;-79
2022/08/23 02:39:38;;;;;;;4.40;2.45;;;15.90;99.90;;;;;;5064776;28;20500;-79
2022/08/23 02:42:04;;;;;;;3.80;2.72;;;15.90;99.90;;;;;;5083195;28;20047;-79
2022/08/23 02:44:34;;;;;;;;;;;15.90;99.90;;;;;;5071794;28;20020;-78
2022/08/23 02:47:01;;;;;;;3.20;1.73;;;15.90;99.90;;;;;;5067291;28;19908;-79
2022/08/23 02:49:28;;;;;;;3.55;2.47;;;15.80;99.90;;;;;;5067837;28;20055;-79
2022/08/23 02:51:53;;;;;;;3.70;2.17;;;15.80;99.90;;;;;;5086559;28;20028;-79
2022/08/23 02:54:19;;;;;;;4.28;2.42;;;15.80;99.90;;;;;;5083341;28;20017;-79
2022/08/23 02:56:45;;;;;;;2.95;2.60;;;15.80;99.90;;;;;;5081297;28;20058;-79
2022/08/23 02:59:12;;;;;;;3.47;2.78;;;15.80;99.90;;;;;;5099363;28;20024;-79
2022/08/23 03:01:38;;;;;;;2.75;2.55;;;15.80;99.90;;;;;;5084071;28;20047;-79
2022/08/23 03:04:18;;;;;;;3.63;2.67;;;15.90;99.90;;;;;;5077903;28;20028;-78
2022/08/23 03:06:44;;;;;;;4.15;3.35;;;15.90;99.90;;;;;;5089124;28;20020;-79
2022/08/23 03:09:10;;;;;;;3.47;2.55;;;15.90;99.90;;;;;;5065545;28;20043;-79
2022/08/23 03:11:37;;;;;;;3.95;2.42;;;15.90;99.90;;;;;;5082196;28;20114;-79
2022/08/23 03:14:03;;;;;;;3.85;2.55;;;15.90;99.90;;;;;;5083247;28;20441;-79
2022/08/23 03:16:29;;;;;;;5.45;2.55;;;15.90;99.90;;;;;;5083683;28;20127;-79
2022/08/23 03:18:55;;;;;;;3.42;2.35;;;15.90;99.90;;;;;;5086920;28;20111;-79
2022/08/23 03:21:21;;;;;;;5.72;2.75;;;15.90;99.90;;;;;;5077554;28;20031;-79
2022/08/23 03:23:47;;;;;;;3.45;2.75;;;16.00;99.90;;;;;;5068416;28;20111;-78
2022/08/23 03:26:13;;;;;;;3.85;3.00;;;16.00;99.90;;;;;;5083560;28;20024;-79
2022/08/23 03:28:41;;;;;;;2.60;2.38;;;16.10;99.90;;;;;;5064691;28;20112;-79
2022/08/23 03:31:08;;;;;;;3.78;2.90;;;16.10;99.90;;;;;;5086745;28;20040;-79
2022/08/23 03:33:41;;;;;;;3.47;2.80;;;16.00;99.90;;;;;;5087322;28;20020;-78
2022/08/23 03:36:10;;;;;;;4.20;2.67;;;16.00;99.90;;;;;;5062793;28;20284;-79
2022/08/23 03:38:38;;;;;;;3.20;2.57;;;16.00;99.90;;;;;;5100158;28;20118;-79
2022/08/23 03:41:06;;;;;;;3.88;3.08;;;16.10;99.90;;;;;;5082101;28;20045;-79
2022/08/23 03:43:33;;;;;;;4.13;2.92;;;16.00;99.90;;;;;;5066806;28;20024;-79
2022/08/23 03:45:59;;;;;;;3.08;2.78;;;16.00;99.90;;;;;;5064523;28;20024;-79
2022/08/23 03:48:25;;;;;;;3.95;3.65;;;16.10;99.90;;;;;;5078463;28;20388;-79
2022/08/23 03:50:51;;;;;;;4.55;3.45;;;16.10;99.90;;;;;;5080404;28;20028;-79
2022/08/23 03:53:17;;;;;;;4.18;3.30;;;16.00;99.90;;;;;;5080771;28;20027;-79
2022/08/23 03:55:45;;;;;;;3.45;3.10;;;16.00;99.90;;;;;;5086664;28;20377;-79
2022/08/23 03:58:15;;;;;;;3.83;3.53;;;15.90;99.90;;;;;;5087393;28;20070;-79
2022/08/23 04:00:41;;;;;;;5.32;3.55;;;15.80;99.90;;;;;;5084010;28;20051;-79
2022/08/23 04:03:06;;;;;;;3.75;3.45;;;15.70;99.90;;;;;;5081977;28;20111;-79
2022/08/23 04:05:43;;;;;;;4.72;3.65;;;15.70;99.90;;;;;;5072268;28;20024;-79
2022/08/23 04:08:14;;;;;;;3.75;3.35;;;15.70;99.90;;;;;;5083045;28;20047;-80
2022/08/23 04:10:41;;;;;;;7.60;3.17;;;15.60;99.90;;;;;;5065914;28;20030;-79
2022/08/23 04:13:09;;;;;;;5.03;3.80;;;15.60;99.90;;;;;;5080193;28;20028;-79
2022/08/23 04:15:35;;;;;;;4.82;3.83;;;15.60;99.90;;;;;;5065595;28;20412;-79
2022/08/23 04:18:01;;;;;;;3.25;2.95;;;15.60;99.90;;;;;;5085687;28;20028;-79
2022/08/23 04:20:27;;;;;;;3.90;3.30;;;15.60;99.90;;;;;;5086505;28;20036;-79
2022/08/23 04:23:01;;;;;;;4.80;3.80;;;15.60;99.90;;;;;;5080704;28;20648;-79
2022/08/23 04:25:32;;;;;;;3.55;3.25;;;15.70;99.90;;;;;;5064640;28;20478;-80
2022/08/23 04:28:04;;;;;;;4.18;3.75;;;15.60;99.90;;;;;;5083838;28;20028;-80
2022/08/23 04:30:32;;;;;;;4.97;3.70;;;15.50;99.90;;;;;;5068231;28;20027;-80
2022/08/23 04:32:57;;;;;;;4.93;3.63;;;15.60;99.90;;;;;;5069171;28;20031;-79
2022/08/23 04:35:24;;;;;;;5.30;3.75;;;15.50;99.90;;;;;;5068692;28;20048;-79
2022/08/23 04:37:52;;;;;;;3.80;3.50;;;15.60;99.90;;;;;;5079397;28;20469;-79
2022/08/23 04:43:03;;;;;;;4.25;3.55;;;15.60;99.90;;;;;;5079969;28;20029;-79
2022/08/23 04:45:31;;;;;;;6.07;3.50;;;15.70;99.90;;;;;;5064114;28;20045;-79
2022/08/23 04:47:57;;;;;;;5.30;4.43;;;15.60;99.90;;;;;;5079132;28;20112;-79
2022/08/23 04:50:22;;;;;;;4.03;3.45;;;15.60;99.90;;;;;;5070560;28;20643;-79
2022/08/23 04:53:16;;;;;;;3.90;3.17;;;15.70;99.90;;;;;;5079072;28;20039;-79
2022/08/23 04:55:54;;;;;;;4.13;3.72;;;15.70;99.90;;;;;;5064756;28;20439;-80
2022/08/23 04:58:29;;;;;;;4.82;3.38;;;15.70;99.90;;;;;;5079825;28;20397;-79
2022/08/23 05:00:59;;;;;;;4.88;4.20;;;15.70;99.90;;;;;;5066392;28;20123;-79
2022/08/23 05:03:28;;;;;;;4.90;4.28;;;15.80;99.90;;;;;;5101901;28;20154;-79
2022/08/23 05:05:56;;;;;;;4.20;3.70;;;15.90;99.90;;;;;;5083529;28;20044;-79
2022/08/23 05:08:27;;;;;;;4.55;3.85;;;15.90;99.90;;;;;;5069999;28;20392;-79
2022/08/23 05:10:53;;;;;;;4.45;4.05;;;16.00;99.90;;;;;;5085177;28;20391;-79
2022/08/23 05:13:19;;;;;;;6.80;4.30;;;15.90;99.90;;;;;;5067642;28;20040;-79
2022/08/23 05:15:45;;;;;;;6.07;4.75;;;16.00;99.90;;;;;;5067744;28;20032;-79
2022/08/23 05:18:11;;;;;;;7.68;5.18;;;16.00;99.90;;;;;;5067374;28;20016;-79
2022/08/23 05:20:38;;;;;;;5.53;4.53;;;16.00;99.90;;;;;;5072712;28;20032;-79
2022/08/23 05:23:04;;;;;;;6.68;4.82;;;16.10;99.90;;;;;;5063991;28;20017;-79
2022/08/23 05:25:51;;;;;;;6.00;5.32;;;16.00;99.90;;;;;;5084984;28;20076;-79
2022/08/23 05:28:26;;;;;;;5.00;4.55;;;16.10;99.90;;;;;;5088156;28;20078;-79
2022/08/23 05:30:58;;;;;;;6.05;4.25;;;16.20;99.90;;;;;;5087924;28;20039;-79
2022/08/23 05:33:25;;;;;;;4.97;4.53;;;16.20;99.90;;;;;;5065677;28;20464;-79
2022/08/23 05:35:52;;;;;;;6.15;4.35;;;16.30;99.90;;;;;;5068115;28;20059;-79
2022/08/23 05:38:18;;;;;;;4.43;4.00;;;16.40;99.90;;;;;;5071446;28;20020;-79
2022/08/23 05:40:49;;;;;;;4.60;4.15;;;16.40;99.90;;;;;;5071273;28;20520;-79
2022/08/23 05:43:15;;;;;;;4.60;4.10;;;16.50;99.90;;;;;;5088667;28;20058;-79
2022/08/23 05:45:41;;;;;;;4.68;4.07;;;16.60;99.90;;;;;;5069248;28;20460;-78
2022/08/23 05:48:06;;;;;;;5.30;3.95;;;16.60;99.90;;;;;;5083370;28;20123;-79
2022/08/23 05:50:42;;;;;;;4.65;3.67;;;16.70;99.90;;;;;;5076411;28;20039;-78
2022/08/23 05:53:11;;;;;;;4.85;3.55;;;16.70;99.90;;;;;;5083797;28;20048;-79
2022/08/23 05:55:37;;;;;;;6.45;4.28;;;16.70;99.90;;;;;;5082981;28;20545;-78
2022/08/23 05:58:14;;;;;;;6.07;5.15;;;16.80;99.90;;;;;;5087013;28;20028;-78
2022/08/23 06:00:39;;;;;;;8.48;5.55;;;17.00;99.90;;;;;;5067544;28;20032;-78
2022/08/23 06:03:05;;;;;;;8.00;6.28;;;17.00;99.90;;;;;;5083792;28;20051;-78
2022/08/23 06:05:32;;;;;;;6.18;4.63;;;17.20;99.90;;;;;;5079135;28;20020;-78
2022/08/23 06:07:59;;;;;;;7.38;3.42;;;17.30;99.90;;;;;;5087179;28;20040;-79
2022/08/23 06:10:25;;;;;;;8.60;6.18;;;17.50;99.90;;;;;;5083646;28;20029;-78
2022/08/23 06:13:02;;;;;;;8.40;4.75;;;17.60;99.90;;;;;;5071840;28;20031;-79
2022/08/23 06:15:27;;;;;;;7.80;6.80;;;17.70;99.90;;;;;;5083010;28;20028;-79
2022/08/23 06:17:53;;;;;;;6.53;5.50;;;17.90;99.90;;;;;;5066014;28;20278;-79
2022/08/23 06:20:19;;;;;;;7.13;4.82;;;18.00;99.90;;;;;;5064774;28;20515;-78
2022/08/23 06:23:05;;;;;;;4.85;3.88;;;18.00;99.90;;;;;;5068162;28;20491;-79
2022/08/23 06:25:38;;;;;;;5.60;4.47;;;18.10;99.90;;;;;;5081784;28;20030;-79
2022/08/23 06:28:09;;;;;;;4.47;4.07;;;18.30;99.90;;;;;;5077456;28;20039;-79
2022/08/23 06:30:37;;;;;;;7.63;5.15;;;18.50;99.90;;;;;;5070606;28;20024;-79
2022/08/23 06:33:33;;;;;;;3.92;3.63;;;18.70;99.90;;;;;;5070702;28;20036;-79
2022/08/23 06:36:17;;;;;;;5.20;3.97;;;18.90;99.90;;;;;;5085324;28;20121;-79
2022/08/23 06:39:04;;;;;;;5.13;4.32;;;19.00;99.90;;;;;;5081845;28;20021;-79
2022/08/23 06:41:49;;;;;;;4.18;3.67;;;19.20;99.90;;;;;;5081252;28;20048;-79
2022/08/23 06:44:27;;;;;;;7.40;4.18;;;19.40;99.90;;;;;;5066153;28;20375;-79
2022/08/23 06:47:15;;;;;;;4.50;3.75;;;19.70;99.90;;;;;;5077643;28;20506;-79
2022/08/23 06:49:41;;;;;;;6.65;5.20;;;19.80;99.90;;;;;;5082055;28;20497;-79
2022/08/23 06:52:08;;;;;;;5.03;4.53;;;19.70;99.90;;;;;;5081837;28;20089;-79
2022/08/23 06:54:50;;;;;;;6.75;5.30;;;19.70;99.90;;;;;;5077386;28;20081;-79
2022/08/23 06:57:19;;;;;;;5.13;4.65;;;19.70;99.90;;;;;;5095300;28;20039;-79
2022/08/23 07:00:10;;;;;;;5.22;4.68;;;19.70;99.90;;;;;;5008051;28;20049;-79
2022/08/23 07:02:53;;;;;;;5.05;4.40;;;19.70;99.90;;;;;;4991491;28;20107;-79
2022/08/23 07:05:38;;;;;;;6.15;5.05;;;19.70;99.90;;;;;;5007275;28;20072;-79
2022/08/23 07:08:17;;;;;;;4.70;4.20;;;19.80;99.90;;;;;;4996274;28;20390;-79
2022/08/23 07:10:42;;;;;;;4.72;4.20;;;20.00;99.90;;;;;;5007239;28;20033;-79
2022/08/23 07:13:08;;;;;;;4.50;3.28;;;20.40;99.90;;;;;;4992607;28;20052;-79
2022/08/23 07:15:34;;;;;;;5.30;4.80;;;20.80;99.90;;;;;;4987585;28;20029;-78
2022/08/23 07:18:01;;;;;;;6.80;5.45;;;20.90;99.90;;;;;;5014504;28;20041;-79
2022/08/23 07:20:28;;;;;;;9.02;7.05;;;21.10;99.90;;;;;;5015541;28;20038;-79
2022/08/23 07:22:53;;;;;;;7.10;4.93;;;21.10;99.90;;;;;;5004372;28;20034;-79
2022/08/23 07:25:19;;;;;;;5.43;4.10;;;21.50;99.90;;;;;;4990394;28;20045;-79
2022/08/23 07:27:48;;;;;;;5.72;3.85;;;21.90;99.90;;;;;;4992147;28;20025;-79
2022/08/23 07:30:18;;;;;;;5.35;3.42;;;22.10;99.90;;;;;;5007381;28;20069;-79
2022/08/23 07:32:44;;;;;;;4.72;3.95;;;22.40;99.90;;;;;;4990463;28;20021;-79
2022/08/23 07:35:17;;;;;;;7.00;3.65;;;22.50;99.90;;;;;;5006347;28;20033;-82
2022/08/23 07:37:43;;;;;;;5.00;3.80;;;22.70;99.90;;;;;;5060414;28;20599;-79
2022/08/23 07:40:10;;;;;;;5.10;4.35;;;23.00;99.90;;;;;;5063766;28;20036;-79
2022/08/23 07:42:36;;;;;;;6.50;3.75;;;23.10;99.90;;;;;;5084979;28;20155;-79
2022/08/23 07:45:02;;;;;;;5.40;2.50;;;23.40;99.90;;;;;;5084143;28;20107;-79
2022/08/23 07:47:31;;;;;;;4.40;3.63;;;23.70;99.90;;;;;;5082547;28;20089;-79
2022/08/23 07:49:58;;;;;;;5.25;4.00;;;23.70;99.90;;;;;;5074832;28;20349;-79
2022/08/23 07:52:24;;;;;;;5.72;3.47;;;23.70;99.90;;;;;;5081607;28;20040;-79
2022/08/23 07:54:50;;;;;;;8.10;4.28;;;24.00;99.90;;;;;;5028018;28;20049;-79
2022/08/23 07:57:41;;;;;;;12.35;5.10;;;24.10;99.90;;;;;;5023400;28;20109;-79
2022/08/23 08:00:16;;;;;;;6.40;3.50;;;24.00;99.90;;;;;;5008266;28;20138;-79
2022/08/23 08:02:58;;;;;;;6.68;3.25;;;24.30;99.90;;;;;;5039263;28;20515;-79
2022/08/23 08:05:32;;;;;;;3.05;1.98;;;24.70;99.90;;;;;;5023452;28;20025;-79
2022/08/23 08:07:58;;;;;;;3.92;2.22;;;24.90;99.90;;;;;;5038987;28;20482;-79
2022/08/23 08:10:24;;;;;;;2.90;1.20;;;25.20;99.90;;;;;;5020078;28;20033;-80
2022/08/23 08:12:50;;;;;;;6.53;4.35;;;25.30;99.90;;;;;;5021636;28;20171;-79
2022/08/23 08:15:18;;;;;;;6.53;3.28;;;25.00;99.90;;;;;;5018637;28;20036;-80
2022/08/23 08:17:50;;;;;;;2.80;1.77;;;25.30;99.90;;;;;;5037775;28;20485;-79
2022/08/23 08:20:17;;;;;;;3.67;1.83;;;25.80;99.90;;;;;;5022966;28;20056;-80
2022/08/23 08:22:52;;;;;;;2.78;1.42;;;26.00;99.90;;;;;;5023295;28;20038;-80
2022/08/23 08:26:01;;;;;;;2.28;1.27;;;26.00;99.90;;;;;;5024236;28;20126;-79
2022/08/23 08:28:28;;;;;;;6.25;2.00;;;26.20;99.90;;;;;;4991888;28;20375;-79
2022/08/23 08:30:54;;;;;;;3.45;1.20;;;26.30;99.90;;;;;;5020898;28;20037;-80
2022/08/23 08:33:20;;;;;;;5.28;1.80;;;26.50;99.90;;;;;;5024688;28;20049;-80
2022/08/23 08:35:48;;;;;;;4.60;1.50;;;26.60;99.90;;;;;;5024370;28;20429;-79
2022/08/23 08:38:14;;;;;;;5.00;2.83;;;26.80;99.90;;;;;;5024358;28;20097;-80
2022/08/23 08:40:40;;;;;;;4.65;2.38;;;26.50;99.90;;;;;;5006756;28;20489;-80
2022/08/23 08:43:36;;;;;;;6.88;3.42;;;26.70;99.90;;;;;;5003502;28;20103;-81
2022/08/23 08:46:27;;;;;;;5.22;2.15;;;26.40;99.90;;;;;;5006081;28;20034;-79
2022/08/23 08:48:57;;;;;;;4.97;2.63;;;27.00;99.90;;;;;;5006342;28;20508;-80
2022/08/23 08:51:34;;;;;;;5.20;2.75;;;27.20;99.90;;;;;;5007956;28;20068;-81
2022/08/23 08:54:05;;;;;;;6.38;3.28;;;27.30;99.90;;;;;;5022517;28;20032;-79
2022/08/23 08:56:48;;;;;;;5.40;3.15;;;26.90;99.90;;;;;;5024165;28;20826;-79
2022/08/23 08:59:27;;;;;;;7.63;4.20;;;27.00;99.90;;;;;;5007232;28;20033;-80
2022/08/23 09:01:56;;;;;;;7.60;4.70;;;27.20;99.90;;;;;;4998568;28;20132;-81
2022/08/23 09:04:29;;;;;;;7.53;4.20;;;27.20;99.90;;;;;;5038501;28;20076;-80
2022/08/23 09:07:06;;;;;;;7.88;4.63;;;26.80;99.90;;;;;;5022956;28;20075;-81
2022/08/23 09:10:08;;;;;;;8.30;5.75;;;26.70;99.90;;;;;;5039408;28;20459;-80
2022/08/23 09:13:08;;;;;;;5.47;3.22;;;27.00;99.90;;;;;;5054797;28;20021;-80
2022/08/23 09:15:47;;;;;;;4.78;3.13;;;27.60;99.90;;;;;;5039592;28;20064;-81
2022/08/23 09:18:15;;;;;;;4.93;2.83;;;27.30;99.90;;;;;;5021209;28;20029;-81
2022/08/23 09:20:46;;;;;;;6.38;2.30;;;27.20;99.90;;;;;;5021330;28;20069;-80
2022/08/23 09:23:21;;;;;;;7.60;4.30;;;27.20;99.90;;;;;;5003418;28;20105;-80
2022/08/23 09:25:51;;;;;;;4.22;1.92;;;26.70;99.90;;;;;;5004609;28;20076;-79
2022/08/23 09:28:17;;;;;;;6.25;2.53;;;26.80;99.90;;;;;;5037144;28;20025;-78
2022/08/23 09:30:44;;;;;;;5.18;3.28;;;26.90;99.90;;;;;;5005738;28;20852;-79
2022/08/23 09:33:16;;;;;;;4.45;2.58;;;27.10;99.90;;;;;;5042469;28;20051;-79
2022/08/23 09:35:43;;;;;;;3.83;2.47;;;27.30;99.90;;;;;;5022185;28;20098;-80
2022/08/23 09:38:19;;;;;;;4.63;2.42;;;27.70;99.90;;;;;;5039328;28;20033;-81
2022/08/23 09:40:49;;;;;;;3.27;2.03;;;27.70;99.90;;;;;;5037545;28;20045;-79
2022/08/23 09:43:20;;;;;;;4.27;2.77;;;28.20;99.90;;;;;;5020206;28;20026;-80
2022/08/23 09:45:49;;;;;;;4.13;2.60;;;28.70;99.90;;;;;;5038781;28;20029;-81
2022/08/23 09:48:40;;;;;;;6.22;2.28;;;28.40;99.90;;;;;;5028389;28;20018;-80
2022/08/23 09:51:23;;;;;;;5.03;2.67;;;29.10;99.90;;;;;;5026736;28;20025;-81
2022/08/23 09:54:19;;;;;;;5.50;2.92;;;29.40;99.90;;;;;;5040215;28;20084;-79
2022/08/23 09:56:53;;;;;;;4.32;2.85;;;29.40;99.90;;;;;;5040698;28;20037;-81
2022/08/23 09:59:24;;;;;;;3.42;1.70;;;29.60;99.90;;;;;;5024142;28;20511;-79
2022/08/23 10:01:55;;;;;;;3.63;1.17;;;29.60;99.90;;;;;;5040495;28;20522;-79
2022/08/23 10:04:23;;;;;;;2.75;1.42;;;30.00;99.90;;;;;;5023900;28;20022;-82
2022/08/23 10:06:51;;;;;;;2.10;0.82;;;30.10;99.90;;;;;;5056400;28;20029;-79
2022/08/23 10:09:29;;;;;;;2.78;0.50;;;30.10;99.90;;;;;;5025956;28;20025;-78
2022/08/23 10:11:57;;;;;;;2.95;0.60;;;30.20;99.90;;;;;;5039708;28;20059;-78
2022/08/23 10:14:25;;;;;;;2.42;0.80;;;29.70;99.90;;;;;;5008256;28;20060;-81
2022/08/23 10:17:09;;;;;;;2.88;0.80;;;29.40;99.90;;;;;;5007567;28;20144;-81
2022/08/23 10:19:54;;;;;;;3.13;0.52;;;29.40;99.90;;;;;;5005953;28;20026;-80
2022/08/23 10:22:24;;;;;;;3.55;0.70;;;29.90;99.90;;;;;;5039172;28;20052;-77
2022/08/23 10:25:32;;;;;;;1.52;0.43;;;30.30;99.90;;;;;;5024451;28;20559;-78
2022/08/23 10:31:33;;;;;;;1.52;0.43;;;30.90;99.90;;;;;;5009959;28;20080;-81
2022/08/23 10:34:39;;;;;;;3.22;0.60;;;30.80;99.90;;;;;;5039256;28;20399;-78
2022/08/23 10:37:36;;;;;;;2.55;0.40;;;29.90;99.90;;;;;;5002397;28;20058;-78
2022/08/23 10:40:14;;;;;;;1.75;0.38;;;29.70;99.90;;;;;;5039310;28;20113;-78
2022/08/23 10:42:49;;;;;;;1.17;0.30;;;30.10;99.90;;;;;;5040075;28;20453;-80
2022/08/23 10:45:35;;;;;;;1.10;0.40;;;30.50;99.90;;;;;;5023891;28;20033;-78
2022/08/23 10:48:25;;;;;;;1.00;0.30;;;30.50;99.90;;;;;;5026850;28;20021;-79
2022/08/23 10:50:54;;;;;;;2.10;0.30;;;30.20;99.90;;;;;;5041140;28;20049;-78
2022/08/23 10:53:22;;;;;;;1.08;0.38;;;30.60;99.90;;;;;;5041208;28;20104;-80
2022/08/23 10:56:01;;;;;;;2.17;0.40;;;30.80;99.90;;;;;;5039772;28;20041;-77
2022/08/23 10:58:43;;;;;;;2.35;0.30;;;31.20;99.90;;;;;;5039111;28;20033;-78
2022/08/23 11:01:15;;;;;;;1.20;0.40;;;31.30;99.90;;;;;;5040270;28;20037;-78
2022/08/23 11:03:48;;;;;;;1.65;0.30;;;30.60;99.90;;;;;;5007780;28;20024;-78
2022/08/23 11:06:36;;;;;;;1.58;0.40;;;30.80;99.90;;;;;;5025339;28;20033;-78
2022/08/23 11:09:16;;;;;;;2.15;0.40;;;30.90;99.90;;;;;;5040737;28;20385;-79
2022/08/23 11:12:03;;;;;;;2.27;0.60;;;30.80;99.90;;;;;;5039338;28;20025;-79
2022/08/23 11:14:56;;;;;;;2.35;0.50;;;30.50;99.90;;;;;;5044691;28;20120;-78
2022/08/23 11:17:40;;;;;;;1.67;0.40;;;30.30;99.90;;;;;;5046738;28;20095;-79
2022/08/23 11:20:08;;;;;;;2.65;0.40;;;31.40;99.90;;;;;;5005509;28;20029;-78
2022/08/23 11:22:53;;;;;;;;;;;31.80;99.90;;;;;;5038381;28;20040;-77
2022/08/23 11:25:19;;;;;;;2.67;0.40;;;31.80;99.90;;;;;;5006730;28;19933;-77
2022/08/23 11:27:45;;;;;;;2.45;0.50;;;31.60;99.90;;;;;;5038936;28;20694;-77
2022/08/23 11:30:31;;;;;;;2.03;0.50;;;31.20;99.90;;;;;;5024765;28;20383;-80
2022/08/23 11:33:20;;;;;;;2.17;0.40;;;31.00;99.90;;;;;;5024529;28;20028;-79
2022/08/23 11:35:49;;;;;;;1.75;0.40;;;31.20;99.90;;;;;;5038633;28;20044;-78
2022/08/23 11:38:16;;;;;;;;;;;31.50;99.90;;;;;;5037747;28;20431;-80
2022/08/23 11:40:49;;;;;;;1.55;0.30;;;31.50;99.90;;;;;;5006041;28;20295;-78
2022/08/23 11:43:28;;;;;;;4.85;0.95;;;31.60;99.90;;;;;;5023436;28;20033;-83
2022/08/23 11:46:12;;;;;;;2.92;0.57;;;30.10;99.90;;;;;;5023881;28;20017;-79
2022/08/23 11:48:41;;;;;;;1.67;0.40;;;30.80;99.90;;;;;;5038952;28;20038;-81
2022/08/23 11:51:55;;;;;;;2.72;0.47;;;31.40;99.90;;;;;;5023290;28;20080;-78
2022/08/23 11:54:58;;;;;;;1.85;0.40;;;31.00;99.90;;;;;;5011804;28;20045;-80
2022/08/23 11:57:45;;;;;;;1.15;0.30;;;32.00;99.90;;;;;;5038427;28;20061;-79
2022/08/23 12:00:23;;;;;;;2.28;0.30;;;32.20;99.90;;;;;;5021888;28;20074;-78
2022/08/23 12:02:51;;;;;;;;;;;32.00;99.90;;;;;;5022627;28;20033;-82
2022/08/23 12:05:20;;;;;;;1.27;0.30;;;32.10;99.90;;;;;;5025871;28;19908;-81
2022/08/23 12:08:16;;;;;;;0.63;0.20;;;32.10;99.90;;;;;;5022144;28;20034;-78
2022/08/23 12:10:41;;;;;;;1.40;0.32;;;32.30;99.90;;;;;;5023089;28;20026;-77
2022/08/23 12:13:19;;;;;;;2.60;0.40;;;32.10;99.90;;;;;;5023207;28;20048;-81
2022/08/23 12:16:06;;;;;;;1.73;0.28;;;32.20;99.90;;;;;;5056098;28;20053;-81
2022/08/23 12:18:43;;;;;;;2.45;0.38;;;32.00;99.90;;;;;;5038625;28;20295;-79
2022/08/23 12:21:22;;;;;;;2.67;0.50;;;31.50;99.90;;;;;;5021751;28;20072;-81
2022/08/23 12:23:52;;;;;;;2.47;0.40;;;30.90;99.90;;;;;;5037450;28;20033;-78
2022/08/23 12:26:25;;;;;;;1.88;0.40;;;30.70;99.90;;;;;;5005378;28;20297;-80
2022/08/23 12:28:58;;;;;;;1.10;0.30;;;31.20;99.90;;;;;;5037452;28;20029;-78
2022/08/23 12:31:40;;;;;;;2.45;0.30;;;31.80;99.90;;;;;;5023742;28;20116;-81
2022/08/23 12:34:08;;;;;;;1.15;0.20;;;32.20;99.90;;;;;;5036843;28;20032;-80
2022/08/23 12:37:07;;;;;;;0.70;0.20;;;32.40;99.90;;;;;;5022179;28;20103;-81
2022/08/23 12:39:45;;;;;;;1.52;0.30;;;32.10;99.60;;;;;;5035977;28;20082;-78
2022/08/23 12:42:30;;;;;;;4.35;0.30;;;31.30;99.90;;;;;;5038839;28;20056;-79
2022/08/23 12:45:11;;;;;;;1.65;0.30;;;31.60;99.90;;;;;;5052874;28;20021;-78
2022/08/23 12:47:41;;;;;;;1.48;0.28;;;31.80;99.90;;;;;;5038372;28;20033;-81
2022/08/23 12:50:12;;;;;;;3.45;0.40;;;31.90;99.90;;;;;;5021997;28;20359;-79
2022/08/23 12:52:38;;;;;;;1.27;0.35;;;31.00;99.90;;;;;;5038727;28;20041;-79
2022/08/23 12:55:22;;;;;;;2.85;0.40;;;29.80;99.90;;;;;;5021829;28;20072;-79
2022/08/23 12:57:55;;;;;;;1.45;0.30;;;29.90;99.90;;;;;;5020210;28;20021;-80
2022/08/23 13:00:31;;;;;;;1.98;0.35;;;30.50;99.90;;;;;;5020195;28;20037;-81
2022/08/23 13:03:02;;;;;;;0.75;0.20;;;31.00;99.90;;;;;;5037718;28;20532;-79
2022/08/23 13:05:47;;;;;;;2.45;0.30;;;30.60;99.90;;;;;;5023232;28;20589;-78
2022/08/23 13:08:18;;;;;;;1.00;0.30;;;31.10;99.90;;;;;;5004121;28;20026;-80
2022/08/23 13:10:45;;;;;;;1.25;0.20;;;31.10;99.90;;;;;;5004320;28;20426;-80
2022/08/23 13:13:24;;;;;;;1.80;0.30;;;31.30;99.90;;;;;;5004263;28;20025;-78
2022/08/23 13:15:55;;;;;;;2.92;0.40;;;31.40;99.90;;;;;;5022116;28;20026;-81
2022/08/23 13:18:42;;;;;;;3.13;0.40;;;31.20;99.90;;;;;;5016217;28;20037;-79
2022/08/23 13:21:30;;;;;;;1.25;0.30;;;31.00;99.90;;;;;;5037117;28;20509;-81
2022/08/23 13:23:59;;;;;;;1.85;0.50;;;31.40;99.90;;;;;;5007984;28;20026;-80
2022/08/23 13:26:36;;;;;;;0.97;0.20;;;30.80;99.90;;;;;;5026046;28;20440;-78
2022/08/23 13:29:14;;;;;;;0.82;0.30;;;30.70;99.90;;;;;;5025864;28;20025;-78